sensor_id;sensor_type;location;lat;lon;timestamp;temperature;humidity
66035;HTU21D;52805;51.074;5.842;2022-07-29T00:02:25;22.60;45.41
66035;HTU21D;52805;51.074;5.842;2022-07-29T00:04:51;22.60;45.47
66035;HTU21D;52805;51.074;5.842;2022-07-29T00:07:17;22.58;45.49
66035;HTU21D;52805;51.074;5.842;2022-07-29T00:09:43;22.55;45.53
66035;HTU21D;52805;51.074;5.842;2022-07-29T00:12:08;22.54;45.57
66035;HTU21D;52805;51.074;5.842;2022-07-29T00:14:34;22.50;45.51
66035;HTU21D;52805;51.074;5.842;2022-07-29T00:17:00;22.49;45.59
66035;HTU21D;52805;51.074;5.842;2022-07-29T00:19:25;22.50;45.57
66035;HTU21D;52805;51.074;5.842;2022-07-29T00:21:51;22.49;45.59
66035;HTU21D;52805;51.074;5.842;2022-07-29T00:24:17;22.49;45.67
66035;HTU21D;52805;51.074;5.842;2022-07-29T00:26:43;22.55;46.21
66035;HTU21D;52805;51.074;5.842;2022-07-29T00:29:08;22.37;47.30
66035;HTU21D;52805;51.074;5.842;2022-07-29T00:31:34;22.11;47.49
66035;HTU21D;52805;51.074;5.842;2022-07-29T00:33:59;21.97;48.57
66035;HTU21D;52805;51.074;5.842;2022-07-29T00:36:25;21.77;49.19
66035;HTU21D;52805;51.074;5.842;2022-07-29T00:38:51;21.59;50.03
66035;HTU21D;52805;51.074;5.842;2022-07-29T00:41:18;21.51;51.59
66035;HTU21D;52805;51.074;5.842;2022-07-29T00:43:44;21.45;54.31
66035;HTU21D;52805;51.074;5.842;2022-07-29T00:46:11;21.21;54.36
66035;HTU21D;52805;51.074;5.842;2022-07-29T00:48:37;20.92;58.07
66035;HTU21D;52805;51.074;5.842;2022-07-29T00:51:05;20.65;60.17
66035;HTU21D;52805;51.074;5.842;2022-07-29T00:53:34;20.46;57.51
66035;HTU21D;52805;51.074;5.842;2022-07-29T00:56:00;20.34;56.88
66035;HTU21D;52805;51.074;5.842;2022-07-29T00:58:26;20.31;57.63
66035;HTU21D;52805;51.074;5.842;2022-07-29T01:00:53;20.26;61.39
66035;HTU21D;52805;51.074;5.842;2022-07-29T01:03:18;20.19;58.67
66035;HTU21D;52805;51.074;5.842;2022-07-29T01:05:45;20.18;62.53
66035;HTU21D;52805;51.074;5.842;2022-07-29T01:08:14;20.17;59.55
66035;HTU21D;52805;51.074;5.842;2022-07-29T01:10:42;20.16;60.04
66035;HTU21D;52805;51.074;5.842;2022-07-29T01:13:10;20.13;60.65
66035;HTU21D;52805;51.074;5.842;2022-07-29T01:15:46;20.06;61.12
66035;HTU21D;52805;51.074;5.842;2022-07-29T01:18:20;19.98;61.59
66035;HTU21D;52805;51.074;5.842;2022-07-29T01:26:59;19.76;64.56
66035;HTU21D;52805;51.074;5.842;2022-07-29T01:29:35;19.62;63.06
66035;HTU21D;52805;51.074;5.842;2022-07-29T01:32:10;19.58;63.62
66035;HTU21D;52805;51.074;5.842;2022-07-29T01:34:40;19.58;63.98
66035;HTU21D;52805;51.074;5.842;2022-07-29T01:37:28;19.56;64.96
66035;HTU21D;52805;51.074;5.842;2022-07-29T01:39:57;19.52;65.03
66035;HTU21D;52805;51.074;5.842;2022-07-29T01:42:41;19.46;64.79
66035;HTU21D;52805;51.074;5.842;2022-07-29T01:45:15;19.39;65.10
66035;HTU21D;52805;51.074;5.842;2022-07-29T01:48:02;19.28;65.51
66035;HTU21D;52805;51.074;5.842;2022-07-29T01:50:38;19.27;66.05
66035;HTU21D;52805;51.074;5.842;2022-07-29T01:53:09;19.24;66.40
66035;HTU21D;52805;51.074;5.842;2022-07-29T01:55:39;19.23;66.56
66035;HTU21D;52805;51.074;5.842;2022-07-29T01:58:07;19.22;66.85
66035;HTU21D;52805;51.074;5.842;2022-07-29T02:00:34;19.14;67.20
66035;HTU21D;52805;51.074;5.842;2022-07-29T02:03:09;19.08;67.46
66035;HTU21D;52805;51.074;5.842;2022-07-29T02:05:39;18.96;67.85
66035;HTU21D;52805;51.074;5.842;2022-07-29T02:08:08;18.94;68.39
66035;HTU21D;52805;51.074;5.842;2022-07-29T02:10:37;18.94;68.35
66035;HTU21D;52805;51.074;5.842;2022-07-29T02:13:05;18.87;68.43
66035;HTU21D;52805;51.074;5.842;2022-07-29T02:15:34;18.85;68.39
66035;HTU21D;52805;51.074;5.842;2022-07-29T02:18:11;18.88;68.46
66035;HTU21D;52805;51.074;5.842;2022-07-29T02:20:39;18.91;68.43
66035;HTU21D;52805;51.074;5.842;2022-07-29T02:23:10;18.88;68.61
66035;HTU21D;52805;51.074;5.842;2022-07-29T02:25:37;18.84;68.64
66035;HTU21D;52805;51.074;5.842;2022-07-29T02:28:06;18.86;68.94
66035;HTU21D;52805;51.074;5.842;2022-07-29T02:30:36;18.91;69.48
66035;HTU21D;52805;51.074;5.842;2022-07-29T02:33:06;18.99;69.58
66035;HTU21D;52805;51.074;5.842;2022-07-29T02:35:34;19.02;69.62
66035;HTU21D;52805;51.074;5.842;2022-07-29T02:38:00;19.08;69.69
66035;HTU21D;52805;51.074;5.842;2022-07-29T02:40:45;19.12;70.12
66035;HTU21D;52805;51.074;5.842;2022-07-29T02:43:12;19.18;70.30
66035;HTU21D;52805;51.074;5.842;2022-07-29T02:45:38;19.22;70.46
66035;HTU21D;52805;51.074;5.842;2022-07-29T02:48:10;19.25;70.84
66035;HTU21D;52805;51.074;5.842;2022-07-29T02:50:44;19.28;71.10
66035;HTU21D;52805;51.074;5.842;2022-07-29T02:53:20;19.30;71.10
66035;HTU21D;52805;51.074;5.842;2022-07-29T02:56:01;19.29;70.90
66035;HTU21D;52805;51.074;5.842;2022-07-29T02:58:38;19.28;70.97
66035;HTU21D;52805;51.074;5.842;2022-07-29T03:01:15;19.27;71.10
66035;HTU21D;52805;51.074;5.842;2022-07-29T03:03:44;19.28;71.22
66035;HTU21D;52805;51.074;5.842;2022-07-29T03:06:13;19.29;71.38
66035;HTU21D;52805;51.074;5.842;2022-07-29T03:08:40;19.29;71.16
66035;HTU21D;52805;51.074;5.842;2022-07-29T03:11:08;19.27;71.00
66035;HTU21D;52805;51.074;5.842;2022-07-29T03:13:36;19.24;71.11
66035;HTU21D;52805;51.074;5.842;2022-07-29T03:16:02;19.24;71.29
66035;HTU21D;52805;51.074;5.842;2022-07-29T03:18:28;19.24;71.26
66035;HTU21D;52805;51.074;5.842;2022-07-29T03:20:54;19.24;71.43
66035;HTU21D;52805;51.074;5.842;2022-07-29T03:23:22;19.24;71.49
66035;HTU21D;52805;51.074;5.842;2022-07-29T03:25:53;19.22;71.45
66035;HTU21D;52805;51.074;5.842;2022-07-29T03:28:19;19.24;71.40
66035;HTU21D;52805;51.074;5.842;2022-07-29T03:30:46;19.22;71.60
66035;HTU21D;52805;51.074;5.842;2022-07-29T03:33:12;19.24;71.77
66035;HTU21D;52805;51.074;5.842;2022-07-29T03:35:38;19.25;71.92
66035;HTU21D;52805;51.074;5.842;2022-07-29T03:38:04;19.23;72.15
66035;HTU21D;52805;51.074;5.842;2022-07-29T03:40:46;19.22;72.23
66035;HTU21D;52805;51.074;5.842;2022-07-29T03:43:16;19.21;72.33
66035;HTU21D;52805;51.074;5.842;2022-07-29T03:45:47;19.22;72.48
66035;HTU21D;52805;51.074;5.842;2022-07-29T03:48:16;19.21;72.59
66035;HTU21D;52805;51.074;5.842;2022-07-29T03:50:44;19.20;72.51
66035;HTU21D;52805;51.074;5.842;2022-07-29T03:53:10;19.18;72.35
66035;HTU21D;52805;51.074;5.842;2022-07-29T03:55:41;19.20;72.29
66035;HTU21D;52805;51.074;5.842;2022-07-29T03:58:09;19.18;72.01
66035;HTU21D;52805;51.074;5.842;2022-07-29T04:00:36;19.20;72.03
66035;HTU21D;52805;51.074;5.842;2022-07-29T04:03:04;19.17;71.92
66035;HTU21D;52805;51.074;5.842;2022-07-29T04:05:30;19.18;71.93
66035;HTU21D;52805;51.074;5.842;2022-07-29T04:07:56;19.21;71.82
66035;HTU21D;52805;51.074;5.842;2022-07-29T04:10:21;19.21;71.60
66035;HTU21D;52805;51.074;5.842;2022-07-29T04:12:49;19.21;71.74
66035;HTU21D;52805;51.074;5.842;2022-07-29T04:15:15;19.21;71.84
66035;HTU21D;52805;51.074;5.842;2022-07-29T04:17:41;19.22;71.98
66035;HTU21D;52805;51.074;5.842;2022-07-29T04:20:07;19.22;72.15
66035;HTU21D;52805;51.074;5.842;2022-07-29T04:22:32;19.23;72.51
66035;HTU21D;52805;51.074;5.842;2022-07-29T04:24:58;19.21;72.61
66035;HTU21D;52805;51.074;5.842;2022-07-29T04:27:25;19.20;72.56
66035;HTU21D;52805;51.074;5.842;2022-07-29T04:29:50;19.15;72.71
66035;HTU21D;52805;51.074;5.842;2022-07-29T04:32:16;19.14;72.52
66035;HTU21D;52805;51.074;5.842;2022-07-29T04:34:42;19.14;72.72
66035;HTU21D;52805;51.074;5.842;2022-07-29T04:37:07;19.14;73.01
66035;HTU21D;52805;51.074;5.842;2022-07-29T04:39:33;19.14;72.88
66035;HTU21D;52805;51.074;5.842;2022-07-29T04:41:59;19.13;72.73
66035;HTU21D;52805;51.074;5.842;2022-07-29T04:44:24;19.14;72.63
66035;HTU21D;52805;51.074;5.842;2022-07-29T04:46:50;19.14;72.64
66035;HTU21D;52805;51.074;5.842;2022-07-29T04:49:16;19.12;72.38
66035;HTU21D;52805;51.074;5.842;2022-07-29T04:51:41;19.10;72.54
66035;HTU21D;52805;51.074;5.842;2022-07-29T04:54:07;19.08;73.01
66035;HTU21D;52805;51.074;5.842;2022-07-29T04:56:33;19.08;73.33
66035;HTU21D;52805;51.074;5.842;2022-07-29T04:58:58;19.07;73.38
66035;HTU21D;52805;51.074;5.842;2022-07-29T05:01:24;19.09;73.57
66035;HTU21D;52805;51.074;5.842;2022-07-29T05:03:50;19.09;73.73
66035;HTU21D;52805;51.074;5.842;2022-07-29T05:06:15;19.10;73.76
66035;HTU21D;52805;51.074;5.842;2022-07-29T05:08:41;19.11;73.64
66035;HTU21D;52805;51.074;5.842;2022-07-29T05:11:07;19.12;73.68
66035;HTU21D;52805;51.074;5.842;2022-07-29T05:13:32;19.13;73.48
66035;HTU21D;52805;51.074;5.842;2022-07-29T05:15:58;19.14;73.50
66035;HTU21D;52805;51.074;5.842;2022-07-29T05:18:25;19.13;73.62
66035;HTU21D;52805;51.074;5.842;2022-07-29T05:20:51;19.13;73.77
66035;HTU21D;52805;51.074;5.842;2022-07-29T05:23:17;19.15;73.77
66035;HTU21D;52805;51.074;5.842;2022-07-29T05:25:43;19.15;73.89
66035;HTU21D;52805;51.074;5.842;2022-07-29T05:28:09;19.22;74.09
66035;HTU21D;52805;51.074;5.842;2022-07-29T05:30:34;19.21;74.41
66035;HTU21D;52805;51.074;5.842;2022-07-29T05:33:00;19.23;74.60
66035;HTU21D;52805;51.074;5.842;2022-07-29T05:35:26;19.24;74.56
66035;HTU21D;52805;51.074;5.842;2022-07-29T05:37:52;19.28;74.53
66035;HTU21D;52805;51.074;5.842;2022-07-29T05:40:17;19.32;74.26
66035;HTU21D;52805;51.074;5.842;2022-07-29T05:42:43;19.37;74.29
66035;HTU21D;52805;51.074;5.842;2022-07-29T05:45:09;19.39;74.12
66035;HTU21D;52805;51.074;5.842;2022-07-29T05:47:35;19.42;74.00
66035;HTU21D;52805;51.074;5.842;2022-07-29T05:50:00;19.46;73.81
66035;HTU21D;52805;51.074;5.842;2022-07-29T05:52:26;19.48;73.83
66035;HTU21D;52805;51.074;5.842;2022-07-29T05:54:52;19.52;74.18
66035;HTU21D;52805;51.074;5.842;2022-07-29T05:57:23;19.54;74.44
66035;HTU21D;52805;51.074;5.842;2022-07-29T05:59:50;19.58;74.51
66035;HTU21D;52805;51.074;5.842;2022-07-29T06:02:17;19.62;74.53
66035;HTU21D;52805;51.074;5.842;2022-07-29T06:04:43;19.66;74.47
66035;HTU21D;52805;51.074;5.842;2022-07-29T06:07:09;19.69;74.28
66035;HTU21D;52805;51.074;5.842;2022-07-29T06:09:34;19.71;74.32
66035;HTU21D;52805;51.074;5.842;2022-07-29T06:12:01;19.74;74.25
66035;HTU21D;52805;51.074;5.842;2022-07-29T06:14:26;19.79;74.18
66035;HTU21D;52805;51.074;5.842;2022-07-29T06:16:54;19.80;73.94
66035;HTU21D;52805;51.074;5.842;2022-07-29T06:19:19;19.81;73.72
66035;HTU21D;52805;51.074;5.842;2022-07-29T06:21:46;19.77;73.79
66035;HTU21D;52805;51.074;5.842;2022-07-29T06:24:13;19.77;73.99
66035;HTU21D;52805;51.074;5.842;2022-07-29T06:26:39;19.76;74.02
66035;HTU21D;52805;51.074;5.842;2022-07-29T06:29:07;19.76;73.88
66035;HTU21D;52805;51.074;5.842;2022-07-29T06:31:33;19.72;73.96
66035;HTU21D;52805;51.074;5.842;2022-07-29T06:33:59;19.73;73.92
66035;HTU21D;52805;51.074;5.842;2022-07-29T06:36:25;19.73;73.83
66035;HTU21D;52805;51.074;5.842;2022-07-29T06:38:51;19.75;73.61
66035;HTU21D;52805;51.074;5.842;2022-07-29T06:41:16;19.77;73.51
66035;HTU21D;52805;51.074;5.842;2022-07-29T06:43:44;19.80;73.36
66035;HTU21D;52805;51.074;5.842;2022-07-29T06:46:13;19.83;73.18
66035;HTU21D;52805;51.074;5.842;2022-07-29T06:48:41;19.84;73.21
66035;HTU21D;52805;51.074;5.842;2022-07-29T06:51:08;19.90;72.82
66035;HTU21D;52805;51.074;5.842;2022-07-29T06:53:35;19.91;72.40
66035;HTU21D;52805;51.074;5.842;2022-07-29T06:56:02;19.85;71.91
66035;HTU21D;52805;51.074;5.842;2022-07-29T06:58:29;19.76;71.91
66035;HTU21D;52805;51.074;5.842;2022-07-29T07:00:57;19.77;71.88
66035;HTU21D;52805;51.074;5.842;2022-07-29T07:03:24;19.74;71.48
66035;HTU21D;52805;51.074;5.842;2022-07-29T07:05:52;19.68;71.69
66035;HTU21D;52805;51.074;5.842;2022-07-29T07:08:18;19.62;71.60
66035;HTU21D;52805;51.074;5.842;2022-07-29T07:10:45;19.65;71.43
66035;HTU21D;52805;51.074;5.842;2022-07-29T07:13:11;19.65;71.30
66035;HTU21D;52805;51.074;5.842;2022-07-29T07:15:38;19.63;71.22
66035;HTU21D;52805;51.074;5.842;2022-07-29T07:18:05;19.66;71.24
66035;HTU21D;52805;51.074;5.842;2022-07-29T07:20:32;19.68;71.27
66035;HTU21D;52805;51.074;5.842;2022-07-29T07:22:58;19.69;71.10
66035;HTU21D;52805;51.074;5.842;2022-07-29T07:25:23;19.72;70.89
66035;HTU21D;52805;51.074;5.842;2022-07-29T07:27:49;19.72;71.01
66035;HTU21D;52805;51.074;5.842;2022-07-29T07:30:15;19.77;71.10
66035;HTU21D;52805;51.074;5.842;2022-07-29T07:32:40;19.81;71.28
66035;HTU21D;52805;51.074;5.842;2022-07-29T07:35:07;19.80;71.71
66035;HTU21D;52805;51.074;5.842;2022-07-29T07:37:33;19.80;72.21
66035;HTU21D;52805;51.074;5.842;2022-07-29T07:40:00;19.82;72.38
66035;HTU21D;52805;51.074;5.842;2022-07-29T07:42:26;19.75;72.62
66035;HTU21D;52805;51.074;5.842;2022-07-29T07:44:52;19.67;72.80
66035;HTU21D;52805;51.074;5.842;2022-07-29T07:47:18;19.73;72.87
66035;HTU21D;52805;51.074;5.842;2022-07-29T07:49:51;19.72;72.88
66035;HTU21D;52805;51.074;5.842;2022-07-29T07:52:20;19.73;72.81
66035;HTU21D;52805;51.074;5.842;2022-07-29T07:54:46;19.75;72.70
66035;HTU21D;52805;51.074;5.842;2022-07-29T07:57:14;19.73;72.66
66035;HTU21D;52805;51.074;5.842;2022-07-29T07:59:40;19.73;72.88
66035;HTU21D;52805;51.074;5.842;2022-07-29T08:02:06;19.76;72.85
66035;HTU21D;52805;51.074;5.842;2022-07-29T08:04:33;19.83;72.91
66035;HTU21D;52805;51.074;5.842;2022-07-29T08:06:59;19.90;72.64
66035;HTU21D;52805;51.074;5.842;2022-07-29T08:09:26;19.97;72.34
66035;HTU21D;52805;51.074;5.842;2022-07-29T08:11:52;20.04;72.16
66035;HTU21D;52805;51.074;5.842;2022-07-29T08:14:18;20.13;71.95
66035;HTU21D;52805;51.074;5.842;2022-07-29T08:16:44;20.22;71.51
66035;HTU21D;52805;51.074;5.842;2022-07-29T08:19:10;20.34;71.28
66035;HTU21D;52805;51.074;5.842;2022-07-29T08:21:36;20.46;70.61
66035;HTU21D;52805;51.074;5.842;2022-07-29T08:24:02;20.53;69.89
66035;HTU21D;52805;51.074;5.842;2022-07-29T08:26:46;20.68;69.31
66035;HTU21D;52805;51.074;5.842;2022-07-29T08:29:12;20.88;68.86
66035;HTU21D;52805;51.074;5.842;2022-07-29T08:31:40;21.04;68.30
66035;HTU21D;52805;51.074;5.842;2022-07-29T08:34:06;21.17;67.72
66035;HTU21D;52805;51.074;5.842;2022-07-29T08:36:34;21.29;66.45
66035;HTU21D;52805;51.074;5.842;2022-07-29T08:39:00;21.45;67.01
66035;HTU21D;52805;51.074;5.842;2022-07-29T08:41:26;21.57;66.72
66035;HTU21D;52805;51.074;5.842;2022-07-29T08:43:52;21.70;66.46
66035;HTU21D;52805;51.074;5.842;2022-07-29T08:46:19;21.82;66.22
66035;HTU21D;52805;51.074;5.842;2022-07-29T08:48:46;21.93;65.86
66035;HTU21D;52805;51.074;5.842;2022-07-29T08:51:14;21.98;65.33
66035;HTU21D;52805;51.074;5.842;2022-07-29T08:53:42;21.98;65.28
66035;HTU21D;52805;51.074;5.842;2022-07-29T08:56:13;22.02;65.33
66035;HTU21D;52805;51.074;5.842;2022-07-29T08:58:40;22.01;64.86
66035;HTU21D;52805;51.074;5.842;2022-07-29T09:01:07;21.97;64.77
66035;HTU21D;52805;51.074;5.842;2022-07-29T09:03:36;22.01;64.76
66035;HTU21D;52805;51.074;5.842;2022-07-29T09:06:03;22.04;64.49
66035;HTU21D;52805;51.074;5.842;2022-07-29T09:08:30;22.05;64.30
66035;HTU21D;52805;51.074;5.842;2022-07-29T09:10:57;22.05;64.26
66035;HTU21D;52805;51.074;5.842;2022-07-29T09:13:23;22.06;64.22
66035;HTU21D;52805;51.074;5.842;2022-07-29T09:15:50;21.96;64.24
66035;HTU21D;52805;51.074;5.842;2022-07-29T09:21:02;21.98;64.25
66035;HTU21D;52805;51.074;5.842;2022-07-29T09:24:08;22.06;63.96
66035;HTU21D;52805;51.074;5.842;2022-07-29T09:26:36;22.14;63.66
66035;HTU21D;52805;51.074;5.842;2022-07-29T09:29:14;22.21;63.33
66035;HTU21D;52805;51.074;5.842;2022-07-29T09:31:43;22.18;63.45
66035;HTU21D;52805;51.074;5.842;2022-07-29T09:34:10;22.22;63.43
66035;HTU21D;52805;51.074;5.842;2022-07-29T09:36:48;22.28;63.21
66035;HTU21D;52805;51.074;5.842;2022-07-29T09:39:15;22.29;63.05
66035;HTU21D;52805;51.074;5.842;2022-07-29T09:41:49;22.29;62.79
66035;HTU21D;52805;51.074;5.842;2022-07-29T09:44:16;22.31;62.83
66035;HTU21D;52805;51.074;5.842;2022-07-29T09:47:00;22.32;62.72
66035;HTU21D;52805;51.074;5.842;2022-07-29T09:49:53;22.36;62.84
66035;HTU21D;52805;51.074;5.842;2022-07-29T09:52:20;22.48;62.71
66035;HTU21D;52805;51.074;5.842;2022-07-29T09:54:46;22.50;62.54
66035;HTU21D;52805;51.074;5.842;2022-07-29T09:57:28;22.58;62.16
66035;HTU21D;52805;51.074;5.842;2022-07-29T09:59:57;22.67;61.73
66035;HTU21D;52805;51.074;5.842;2022-07-29T10:02:28;22.80;61.70
66035;HTU21D;52805;51.074;5.842;2022-07-29T10:04:55;22.96;61.24
66035;HTU21D;52805;51.074;5.842;2022-07-29T10:07:21;23.03;60.80
66035;HTU21D;52805;51.074;5.842;2022-07-29T10:09:54;23.12;60.31
66035;HTU21D;52805;51.074;5.842;2022-07-29T10:12:21;23.23;59.88
66035;HTU21D;52805;51.074;5.842;2022-07-29T10:14:47;23.34;59.63
66035;HTU21D;52805;51.074;5.842;2022-07-29T10:17:15;23.47;59.48
66035;HTU21D;52805;51.074;5.842;2022-07-29T10:19:42;23.62;59.21
66035;HTU21D;52805;51.074;5.842;2022-07-29T10:22:09;23.69;58.53
66035;HTU21D;52805;51.074;5.842;2022-07-29T10:24:38;23.72;58.45
66035;HTU21D;52805;51.074;5.842;2022-07-29T10:27:06;23.83;57.72
66035;HTU21D;52805;51.074;5.842;2022-07-29T10:29:32;23.83;57.83
66035;HTU21D;52805;51.074;5.842;2022-07-29T10:40:47;23.74;58.33
66035;HTU21D;52805;51.074;5.842;2022-07-29T10:43:38;23.87;57.61
66035;HTU21D;52805;51.074;5.842;2022-07-29T10:46:07;23.96;57.32
66035;HTU21D;52805;51.074;5.842;2022-07-29T10:48:33;24.05;57.13
66035;HTU21D;52805;51.074;5.842;2022-07-29T10:51:04;24.20;56.74
66035;HTU21D;52805;51.074;5.842;2022-07-29T10:53:47;24.35;56.06
66035;HTU21D;52805;51.074;5.842;2022-07-29T10:56:29;24.48;54.21
66035;HTU21D;52805;51.074;5.842;2022-07-29T11:01:43;24.61;54.39
66035;HTU21D;52805;51.074;5.842;2022-07-29T11:04:09;24.69;54.19
66035;HTU21D;52805;51.074;5.842;2022-07-29T11:09:26;24.71;54.00
66035;HTU21D;52805;51.074;5.842;2022-07-29T11:11:52;24.74;54.00
66035;HTU21D;52805;51.074;5.842;2022-07-29T11:14:20;24.82;53.91
66035;HTU21D;52805;51.074;5.842;2022-07-29T11:17:05;24.95;53.75
66035;HTU21D;52805;51.074;5.842;2022-07-29T11:19:32;25.08;53.33
66035;HTU21D;52805;51.074;5.842;2022-07-29T11:21:58;25.21;52.90
66035;HTU21D;52805;51.074;5.842;2022-07-29T11:24:29;25.31;52.27
66035;HTU21D;52805;51.074;5.842;2022-07-29T11:27:18;25.35;52.40
66035;HTU21D;52805;51.074;5.842;2022-07-29T11:29:56;25.49;52.14
66035;HTU21D;52805;51.074;5.842;2022-07-29T11:32:24;25.57;51.82
66035;HTU21D;52805;51.074;5.842;2022-07-29T11:35:20;25.65;51.61
66035;HTU21D;52805;51.074;5.842;2022-07-29T11:41:19;25.84;51.00
66035;HTU21D;52805;51.074;5.842;2022-07-29T11:43:51;25.95;50.72
66035;HTU21D;52805;51.074;5.842;2022-07-29T11:46:47;26.08;50.26
66035;HTU21D;52805;51.074;5.842;2022-07-29T11:49:25;26.16;49.69
66035;HTU21D;52805;51.074;5.842;2022-07-29T11:51:52;26.25;49.18
66035;HTU21D;52805;51.074;5.842;2022-07-29T11:54:34;26.28;49.19
66035;HTU21D;52805;51.074;5.842;2022-07-29T11:57:00;26.35;49.23
66035;HTU21D;52805;51.074;5.842;2022-07-29T11:59:26;26.40;49.07
66035;HTU21D;52805;51.074;5.842;2022-07-29T12:01:53;26.43;49.05
66035;HTU21D;52805;51.074;5.842;2022-07-29T12:04:19;26.49;48.89
66035;HTU21D;52805;51.074;5.842;2022-07-29T12:06:50;26.58;48.69
66035;HTU21D;52805;51.074;5.842;2022-07-29T12:09:16;26.69;48.14
66035;HTU21D;52805;51.074;5.842;2022-07-29T12:11:43;26.82;47.90
66035;HTU21D;52805;51.074;5.842;2022-07-29T12:14:08;26.93;47.80
66035;HTU21D;52805;51.074;5.842;2022-07-29T12:16:37;27.11;47.34
66035;HTU21D;52805;51.074;5.842;2022-07-29T12:19:04;27.16;45.32
66035;HTU21D;52805;51.074;5.842;2022-07-29T12:21:46;27.15;46.68
66035;HTU21D;52805;51.074;5.842;2022-07-29T12:24:12;27.23;46.45
66035;HTU21D;52805;51.074;5.842;2022-07-29T12:26:49;27.30;46.02
66035;HTU21D;52805;51.074;5.842;2022-07-29T12:29:16;27.41;45.68
66035;HTU21D;52805;51.074;5.842;2022-07-29T12:31:43;27.43;45.15
66035;HTU21D;52805;51.074;5.842;2022-07-29T12:34:10;27.45;45.06
66035;HTU21D;52805;51.074;5.842;2022-07-29T12:36:37;27.43;44.78
66035;HTU21D;52805;51.074;5.842;2022-07-29T12:39:03;27.45;44.75
66035;HTU21D;52805;51.074;5.842;2022-07-29T12:41:30;27.50;44.68
66035;HTU21D;52805;51.074;5.842;2022-07-29T12:43:55;27.58;44.54
66035;HTU21D;52805;51.074;5.842;2022-07-29T12:46:21;27.71;43.93
66035;HTU21D;52805;51.074;5.842;2022-07-29T12:48:51;27.73;43.69
66035;HTU21D;52805;51.074;5.842;2022-07-29T12:51:31;27.78;43.47
66035;HTU21D;52805;51.074;5.842;2022-07-29T12:54:07;27.83;43.67
66035;HTU21D;52805;51.074;5.842;2022-07-29T12:56:33;27.86;43.32
66035;HTU21D;52805;51.074;5.842;2022-07-29T12:58:59;27.80;43.48
66035;HTU21D;52805;51.074;5.842;2022-07-29T13:01:25;27.87;44.00
66035;HTU21D;52805;51.074;5.842;2022-07-29T13:03:58;28.01;43.68
66035;HTU21D;52805;51.074;5.842;2022-07-29T13:06:29;28.09;43.42
66035;HTU21D;52805;51.074;5.842;2022-07-29T13:09:10;28.12;43.34
66035;HTU21D;52805;51.074;5.842;2022-07-29T13:11:50;28.23;43.30
66035;HTU21D;52805;51.074;5.842;2022-07-29T13:14:35;28.32;43.03
66035;HTU21D;52805;51.074;5.842;2022-07-29T13:19:41;28.44;42.57
66035;HTU21D;52805;51.074;5.842;2022-07-29T13:22:09;28.54;42.19
66035;HTU21D;52805;51.074;5.842;2022-07-29T13:27:19;28.64;41.94
66035;HTU21D;52805;51.074;5.842;2022-07-29T13:29:45;28.74;41.64
66035;HTU21D;52805;51.074;5.842;2022-07-29T13:32:11;28.75;41.83
66035;HTU21D;52805;51.074;5.842;2022-07-29T13:34:37;28.85;41.13
66035;HTU21D;52805;51.074;5.842;2022-07-29T13:37:03;28.84;42.13
66035;HTU21D;52805;51.074;5.842;2022-07-29T13:39:29;28.94;41.81
66035;HTU21D;52805;51.074;5.842;2022-07-29T13:41:55;28.95;41.37
66035;HTU21D;52805;51.074;5.842;2022-07-29T13:44:21;28.95;41.11
66035;HTU21D;52805;51.074;5.842;2022-07-29T13:46:46;29.02;40.69
66035;HTU21D;52805;51.074;5.842;2022-07-29T13:49:12;28.98;40.28
66035;HTU21D;52805;51.074;5.842;2022-07-29T13:51:38;28.89;40.52
66035;HTU21D;52805;51.074;5.842;2022-07-29T13:54:04;28.94;40.58
66035;HTU21D;52805;51.074;5.842;2022-07-29T13:56:30;29.03;40.63
66035;HTU21D;52805;51.074;5.842;2022-07-29T13:58:55;29.02;40.17
66035;HTU21D;52805;51.074;5.842;2022-07-29T14:01:23;28.79;39.91
66035;HTU21D;52805;51.074;5.842;2022-07-29T14:03:48;28.48;41.07
66035;HTU21D;52805;51.074;5.842;2022-07-29T14:06:14;28.25;41.62
66035;HTU21D;52805;51.074;5.842;2022-07-29T14:08:40;28.19;42.07
66035;HTU21D;52805;51.074;5.842;2022-07-29T14:11:06;28.32;41.87
66035;HTU21D;52805;51.074;5.842;2022-07-29T14:13:31;28.48;41.58
66035;HTU21D;52805;51.074;5.842;2022-07-29T14:15:57;28.68;41.42
66035;HTU21D;52805;51.074;5.842;2022-07-29T14:18:29;28.84;41.04
66035;HTU21D;52805;51.074;5.842;2022-07-29T14:20:58;28.92;40.88
66035;HTU21D;52805;51.074;5.842;2022-07-29T14:23:24;29.00;40.84
66035;HTU21D;52805;51.074;5.842;2022-07-29T14:25:49;29.00;40.72
66035;HTU21D;52805;51.074;5.842;2022-07-29T14:28:15;28.91;40.79
66035;HTU21D;52805;51.074;5.842;2022-07-29T14:30:41;28.78;41.22
66035;HTU21D;52805;51.074;5.842;2022-07-29T14:33:06;28.77;41.37
66035;HTU21D;52805;51.074;5.842;2022-07-29T14:35:33;28.83;41.39
66035;HTU21D;52805;51.074;5.842;2022-07-29T14:37:59;28.94;41.18
66035;HTU21D;52805;51.074;5.842;2022-07-29T14:40:27;29.03;40.78
66035;HTU21D;52805;51.074;5.842;2022-07-29T14:43:13;29.01;40.70
66035;HTU21D;52805;51.074;5.842;2022-07-29T14:45:40;29.08;40.52
66035;HTU21D;52805;51.074;5.842;2022-07-29T14:48:06;29.20;40.31
66035;HTU21D;52805;51.074;5.842;2022-07-29T14:50:32;29.31;39.81
66035;HTU21D;52805;51.074;5.842;2022-07-29T14:52:59;29.26;39.26
66035;HTU21D;52805;51.074;5.842;2022-07-29T14:55:24;29.14;39.88
66035;HTU21D;52805;51.074;5.842;2022-07-29T14:57:50;29.04;40.43
66035;HTU21D;52805;51.074;5.842;2022-07-29T15:00:17;29.04;40.34
66035;HTU21D;52805;51.074;5.842;2022-07-29T15:02:43;29.14;40.46
66035;HTU21D;52805;51.074;5.842;2022-07-29T15:05:09;29.36;39.37
66035;HTU21D;52805;51.074;5.842;2022-07-29T15:07:34;29.44;39.01
66035;HTU21D;52805;51.074;5.842;2022-07-29T15:10:00;29.32;38.97
66035;HTU21D;52805;51.074;5.842;2022-07-29T15:12:26;29.28;38.75
66035;HTU21D;52805;51.074;5.842;2022-07-29T15:14:51;29.30;38.72
66035;HTU21D;52805;51.074;5.842;2022-07-29T15:17:17;29.32;38.73
66035;HTU21D;52805;51.074;5.842;2022-07-29T15:19:43;29.31;38.81
66035;HTU21D;52805;51.074;5.842;2022-07-29T15:22:09;29.18;39.12
66035;HTU21D;52805;51.074;5.842;2022-07-29T15:24:35;29.02;39.35
66035;HTU21D;52805;51.074;5.842;2022-07-29T15:27:00;28.83;39.63
66035;HTU21D;52805;51.074;5.842;2022-07-29T15:29:26;28.70;39.75
66035;HTU21D;52805;51.074;5.842;2022-07-29T15:31:52;28.55;40.00
66035;HTU21D;52805;51.074;5.842;2022-07-29T15:34:17;28.47;40.30
66035;HTU21D;52805;51.074;5.842;2022-07-29T15:36:45;28.44;40.26
66035;HTU21D;52805;51.074;5.842;2022-07-29T15:39:11;28.43;40.33
66035;HTU21D;52805;51.074;5.842;2022-07-29T15:41:36;28.37;39.66
66035;HTU21D;52805;51.074;5.842;2022-07-29T15:44:02;28.35;40.25
66035;HTU21D;52805;51.074;5.842;2022-07-29T15:46:28;28.34;40.52
66035;HTU21D;52805;51.074;5.842;2022-07-29T15:49:13;28.28;40.77
66035;HTU21D;52805;51.074;5.842;2022-07-29T15:51:39;28.30;40.60
66035;HTU21D;52805;51.074;5.842;2022-07-29T15:54:04;28.23;40.52
66035;HTU21D;52805;51.074;5.842;2022-07-29T15:56:30;28.13;40.51